Time;durP1;ratioP1;P1;durP2;ratioP2;P2;SDS_P1;SDS_P2;PMS_P1;PMS_P2;Temp;Humidity;BMP_temperature;BMP_pressure;BME280_temperature;BME280_humidity;BME280_pressure;Samples;Min_cycle;Max_cycle;Signal;HPM_P1;HPM_P2
2023/01/14 00:01:14;;;;;;;27.27;15.50;;;;;;;-143.84;91.18;44030.50;5091853;28;20472;-77
2023/01/14 00:03:41;;;;;;;28.90;15.87;;;;;;;-143.84;91.13;44030.50;5092244;28;20443;-77
2023/01/14 00:06:11;;;;;;;24.13;14.47;;;;;;;-143.84;91.00;44020.97;5092222;28;20443;-77
2023/01/14 00:08:40;;;;;;;25.17;14.93;;;;;;;-143.84;91.17;44024.78;5092519;28;20439;-77
2023/01/14 00:11:10;;;;;;;26.67;14.40;;;;;;;-143.84;91.28;44036.22;5092001;28;20553;-77
2023/01/14 00:13:39;;;;;;;27.87;15.23;;;;;;;-143.84;91.71;44032.41;5092189;28;20424;-78
2023/01/14 00:16:08;;;;;;;19.87;13.20;;;;;;;-143.84;91.15;44028.59;5092187;28;20446;-77
2023/01/14 00:18:36;;;;;;;26.10;15.20;;;;;;;-143.84;90.95;44009.56;5092364;28;20435;-77
2023/01/14 00:21:05;;;;;;;23.87;14.83;;;;;;;-143.84;90.79;44020.97;5091975;28;20548;-77
2023/01/14 00:23:34;;;;;;;20.93;14.07;;;;;;;-143.84;90.55;44011.47;5091919;28;20433;-77
2023/01/14 00:26:05;;;;;;;30.33;15.37;;;;;;;-143.84;90.77;44009.56;5091727;28;20440;-75
2023/01/14 00:28:33;;;;;;;24.00;14.47;;;;;;;-143.84;90.61;44007.66;5088670;28;20463;-78
2023/01/14 00:31:05;;;;;;;21.23;13.03;;;;;;;-143.84;90.67;44020.97;5091332;28;20958;-77
2023/01/14 00:33:33;;;;;;;30.03;15.30;;;;;;;-143.84;90.75;44007.66;5089962;28;20428;-77
2023/01/14 00:36:00;;;;;;;30.47;16.50;;;;;;;-143.84;90.65;44001.94;5090668;28;20440;-77
2023/01/14 00:38:28;;;;;;;25.93;16.33;;;;;;;-143.84;90.58;44017.16;5091523;28;20448;-77
2023/01/14 00:41:05;;;;;;;23.73;13.37;;;;;;;-143.84;90.40;44005.75;5091290;28;20487;-78
2023/01/14 00:43:32;;;;;;;22.30;14.20;;;;;;;-143.84;90.44;44007.66;5091964;28;20481;-77
2023/01/14 00:46:00;;;;;;;21.57;13.30;;;;;;;-143.84;89.93;43992.41;5091592;28;20436;-77
2023/01/14 00:48:27;;;;;;;21.90;13.13;;;;;;;-143.84;89.93;43979.09;5091732;28;20458;-77
2023/01/14 00:50:54;;;;;;;25.33;14.60;;;;;;;-143.84;90.07;44001.94;5091935;28;20447;-76
2023/01/14 00:53:21;;;;;;;24.60;13.87;;;;;;;-143.84;89.95;43981.00;5091330;28;20466;-77
2023/01/14 00:55:49;;;;;;;30.93;15.03;;;;;;;-143.84;89.87;44000.03;5091246;28;20917;-77
2023/01/14 00:58:17;;;;;;;25.33;15.87;;;;;;;-143.84;89.90;44003.84;5091603;28;20440;-77
2023/01/14 01:00:45;;;;;;;22.80;13.17;;;;;;;-143.84;90.13;44007.66;5091493;28;20461;-77
2023/01/14 01:03:13;;;;;;;24.87;15.50;;;;;;;-143.84;90.48;44001.94;5091404;28;20432;-78
2023/01/14 01:05:40;;;;;;;28.60;16.77;;;;;;;-143.84;90.14;44003.84;5094949;28;20497;-78
2023/01/14 01:08:10;;;;;;;19.10;13.07;;;;;;;-143.84;90.13;44017.16;5095570;28;20447;-77
2023/01/14 01:10:37;;;;;;;22.40;13.50;;;;;;;-143.84;90.18;43990.53;5095349;28;20440;-77
2023/01/14 01:13:05;;;;;;;25.80;13.50;;;;;;;-143.84;90.02;43990.53;5095085;28;20436;-77
2023/01/14 01:15:36;;;;;;;20.00;12.90;;;;;;;-143.84;89.75;43990.53;5095226;28;20486;-77
2023/01/14 01:18:04;;;;;;;15.80;10.30;;;;;;;-143.84;89.40;43984.81;5095111;28;20473;-76
2023/01/14 01:20:32;;;;;;;14.23;10.33;;;;;;;-143.84;89.41;43967.69;5095341;28;20564;-77
2023/01/14 01:22:59;;;;;;;13.60;8.87;;;;;;;-143.84;89.13;43969.59;5095558;28;20436;-77
2023/01/14 01:25:27;;;;;;;13.93;9.77;;;;;;;-143.84;89.32;43975.28;5095342;28;20870;-78
2023/01/14 01:27:55;;;;;;;17.80;10.77;;;;;;;-143.84;89.08;43967.69;5095348;28;20424;-77
2023/01/14 01:30:23;;;;;;;14.23;9.30;;;;;;;-143.84;89.18;43998.13;5095472;28;20495;-78
2023/01/14 01:32:52;;;;;;;15.00;9.33;;;;;;;-143.84;88.81;43971.47;5094915;28;20443;-78
2023/01/14 01:35:20;;;;;;;12.13;8.80;;;;;;;-143.84;88.81;43969.59;5094819;28;20857;-77
2023/01/14 01:37:47;;;;;;;13.37;9.43;;;;;;;-143.84;88.38;43971.47;5094854;28;20549;-77
2023/01/14 01:40:15;;;;;;;12.17;9.00;;;;;;;-143.84;88.51;43961.97;5094674;28;20461;-77
2023/01/14 01:42:55;;;;;;;12.70;8.67;;;;;;;-143.84;88.58;43982.91;5095000;28;20425;-77
2023/01/14 01:45:31;;;;;;;13.90;9.67;;;;;;;-143.84;88.31;43979.09;5094883;28;20526;-77
2023/01/14 01:48:05;;;;;;;14.47;8.80;;;;;;;-143.84;88.50;43967.69;5095025;28;20452;-77
2023/01/14 01:50:33;;;;;;;13.00;9.13;;;;;;;-143.84;88.70;43944.84;5094924;28;20440;-78
2023/01/14 01:53:02;;;;;;;13.40;8.53;;;;;;;-143.84;88.60;43960.06;5094893;28;20435;-77
2023/01/14 01:55:31;;;;;;;12.57;8.40;;;;;;;-143.84;88.81;43954.34;5094852;28;20977;-77
2023/01/14 01:57:59;;;;;;;11.87;8.80;;;;;;;-143.84;88.73;43954.34;5094713;28;20448;-77
2023/01/14 02:00:27;;;;;;;12.83;9.17;;;;;;;-143.84;88.34;43937.22;5094513;28;20436;-77
2023/01/14 02:03:00;;;;;;;14.50;9.30;;;;;;;-143.84;88.47;43946.75;5094583;28;20443;-77
2023/01/14 02:05:29;;;;;;;12.20;8.13;;;;;;;-143.84;88.48;43958.16;5094470;28;20433;-77
2023/01/14 02:07:58;;;;;;;11.20;9.23;;;;;;;-143.84;88.36;43967.69;5094454;28;20541;-77
2023/01/14 02:10:35;;;;;;;11.90;8.80;;;;;;;-143.84;88.56;43954.34;5094448;28;20459;-78
2023/01/14 02:13:23;;;;;;;16.00;10.30;;;;;;;-143.84;88.68;43952.44;5094271;28;20478;-77
2023/01/14 02:16:04;;;;;;;9.83;7.73;;;;;;;-143.84;88.63;43954.34;5093309;28;20777;-77
2023/01/14 02:18:43;;;;;;;10.00;7.23;;;;;;;-143.84;88.52;43954.34;5094201;28;20427;-77
2023/01/14 02:21:19;;;;;;;10.97;8.13;;;;;;;-143.84;88.33;43956.25;5093984;28;20472;-76
2023/01/14 02:24:15;;;;;;;12.23;8.13;;;;;;;-143.84;88.23;43969.59;5094101;28;20509;-76
2023/01/14 02:27:07;;;;;;;12.10;8.60;;;;;;;-143.84;88.90;43937.22;5091741;28;20444;-77
2023/01/14 02:30:07;;;;;;;10.33;7.30;;;;;;;-143.84;88.99;43960.06;5094027;28;20436;-77
2023/01/14 02:32:40;;;;;;;8.37;6.50;;;;;;;-143.84;88.98;43965.78;5094067;28;20436;-77
2023/01/14 02:35:16;;;;;;;11.77;8.00;;;;;;;-143.84;88.94;43990.53;5094064;28;20436;-77
2023/01/14 02:37:53;;;;;;;10.43;7.83;;;;;;;-143.84;89.01;43969.59;5093729;28;20440;-77
2023/01/14 02:40:28;;;;;;;12.77;8.80;;;;;;;-143.84;89.18;43961.97;5093899;28;21133;-77
2023/01/14 02:45:56;;;;;;;11.27;8.47;;;;;;;-143.84;89.18;43967.69;5093930;28;21051;-77
2023/01/14 02:48:26;;;;;;;10.43;8.63;;;;;;;-143.84;88.89;43990.53;5093706;28;20439;-77
2023/01/14 02:50:54;;;;;;;10.30;7.77;;;;;;;-143.84;89.21;43954.34;5093465;28;20432;-77
2023/01/14 02:53:22;;;;;;;9.90;7.70;;;;;;;-143.84;89.16;43961.97;5093693;28;21011;-77
2023/01/14 02:55:51;;;;;;;11.13;7.83;;;;;;;-143.84;88.92;43969.59;5093610;28;20847;-77
2023/01/14 02:59:07;;;;;;;10.07;7.80;;;;;;;-143.84;88.80;43969.59;5093665;28;20440;-76
2023/01/14 03:02:10;;;;;;;7.60;6.27;;;;;;;-143.84;88.61;43958.16;5088551;28;20487;-77
2023/01/14 03:04:53;;;;;;;8.93;6.63;;;;;;;-143.84;88.70;43960.06;5093037;28;20933;-77
2023/01/14 03:07:27;;;;;;;10.43;7.50;;;;;;;-143.84;88.95;43948.63;5093287;28;20428;-77
2023/01/14 03:10:04;;;;;;;7.60;6.53;;;;;;;-143.84;88.81;43975.28;5093044;28;20440;-77
2023/01/14 03:12:40;;;;;;;11.00;9.00;;;;;;;-143.84;88.83;43973.38;5092960;28;20471;-77
2023/01/14 03:15:17;;;;;;;13.73;7.90;;;;;;;-143.84;88.99;43982.91;5093213;28;20951;-77
2023/01/14 03:17:51;;;;;;;9.37;7.70;;;;;;;-143.84;88.71;43961.97;5093071;28;20452;-77
2023/01/14 03:20:25;;;;;;;8.43;6.80;;;;;;;-143.84;88.67;43961.97;5093375;28;20424;-77
2023/01/14 03:22:54;;;;;;;10.57;7.20;;;;;;;-143.84;88.46;43956.25;5092908;28;20479;-77
2023/01/14 03:25:23;;;;;;;11.40;8.30;;;;;;;-143.84;88.45;43956.25;5092865;28;20432;-77
2023/01/14 03:27:51;;;;;;;11.40;7.20;;;;;;;-143.84;88.47;43982.91;5093113;28;20428;-77
2023/01/14 03:30:23;;;;;;;9.37;7.10;;;;;;;-143.84;88.38;43946.75;5093264;28;20552;-77
2023/01/14 03:32:56;;;;;;;9.73;6.97;;;;;;;-143.84;88.25;43944.84;5092795;28;20432;-77
2023/01/14 03:35:28;;;;;;;9.30;6.73;;;;;;;-143.84;88.49;43948.63;5092850;28;20979;-77
2023/01/14 03:38:00;;;;;;;11.70;7.43;;;;;;;-143.84;88.47;43942.94;5092633;28;20448;-77
2023/01/14 03:40:28;;;;;;;7.90;7.10;;;;;;;-143.84;88.33;43939.13;5093127;28;20432;-77
2023/01/14 03:43:01;;;;;;;8.60;6.83;;;;;;;-143.84;88.53;43965.78;5092785;28;20517;-77
2023/01/14 03:45:32;;;;;;;11.00;7.63;;;;;;;-143.84;88.72;43954.34;5092748;28;20424;-77
2023/01/14 03:48:00;;;;;;;13.27;8.07;;;;;;;-143.84;88.88;43979.09;5092901;28;20990;-77
2023/01/14 03:50:35;;;;;;;11.03;8.30;;;;;;;-143.84;88.77;43975.28;5092645;28;20443;-77
2023/01/14 03:53:12;;;;;;;10.30;8.30;;;;;;;-143.84;88.83;43988.63;5092018;28;20428;-77
2023/01/14 03:55:50;;;;;;;11.33;8.30;;;;;;;-143.84;88.89;43952.44;5075468;28;20460;-77
2023/01/14 03:58:24;;;;;;;8.50;7.13;;;;;;;-143.84;88.59;43960.06;5072138;28;20494;-77
2023/01/14 04:00:55;;;;;;;12.77;8.63;;;;;;;-143.84;88.81;43967.69;5071746;28;20441;-78
2023/01/14 04:03:25;;;;;;;10.90;7.83;;;;;;;-143.84;88.75;43969.59;5070607;28;20437;-76
2023/01/14 04:05:54;;;;;;;14.47;9.10;;;;;;;-143.84;88.70;43965.78;5070673;28;20451;-76
2023/01/14 04:08:24;;;;;;;12.40;8.03;;;;;;;-143.84;88.82;43956.25;5070394;28;20433;-77
2023/01/14 04:10:52;;;;;;;12.97;8.67;;;;;;;-143.84;88.98;43929.59;5071491;28;20445;-77
2023/01/14 04:16:04;;;;;;;12.47;8.70;;;;;;;-143.84;89.19;43977.19;5071878;28;20432;-77
2023/01/14 04:18:32;;;;;;;12.60;8.30;;;;;;;-143.84;89.07;43944.84;5072131;28;20432;-76
2023/01/14 04:21:01;;;;;;;11.60;8.30;;;;;;;-143.84;89.16;43969.59;5071544;28;20499;-76
2023/01/14 04:23:28;;;;;;;11.93;8.33;;;;;;;-143.84;88.91;43965.78;5072016;28;20506;-77
2023/01/14 04:25:58;;;;;;;13.80;8.03;;;;;;;-143.84;89.08;43956.25;5071766;28;21012;-77
2023/01/14 04:28:27;;;;;;;15.60;9.93;;;;;;;-143.84;89.15;43979.09;5071850;28;20433;-77
2023/01/14 04:30:54;;;;;;;12.57;8.77;;;;;;;-143.84;89.20;43950.53;5071805;28;20813;-77
2023/01/14 04:33:22;;;;;;;10.60;8.50;;;;;;;-143.84;89.24;43967.69;5071924;28;20428;-77
2023/01/14 04:35:50;;;;;;;13.70;8.83;;;;;;;-143.84;89.34;43944.84;5071383;28;20440;-77
2023/01/14 04:38:21;;;;;;;10.60;8.00;;;;;;;-143.84;89.33;43981.00;5088406;28;20454;-77
2023/01/14 04:40:49;;;;;;;13.13;8.57;;;;;;;-143.84;89.75;43982.91;5091406;28;20424;-77
2023/01/14 04:43:15;;;;;;;14.40;9.13;;;;;;;-143.84;89.72;43990.53;5091799;28;20478;-76
2023/01/14 04:45:43;;;;;;;10.87;7.30;;;;;;;-143.84;90.00;43981.00;5091928;28;20816;-77
2023/01/14 04:48:10;;;;;;;12.40;8.10;;;;;;;-143.84;90.12;43986.72;5091668;28;20501;-77
2023/01/14 04:50:44;;;;;;;9.30;7.30;;;;;;;-143.84;89.87;43979.09;5091668;28;20431;-77
2023/01/14 04:53:12;;;;;;;11.17;8.00;;;;;;;-143.84;90.01;43986.72;5092271;28;20428;-77
2023/01/14 04:55:43;;;;;;;13.73;9.20;;;;;;;-143.84;89.83;43982.91;5091602;28;20933;-77
2023/01/14 04:58:12;;;;;;;22.40;11.70;;;;;;;-143.84;89.94;43988.63;5092423;28;20432;-79
2023/01/14 05:00:39;;;;;;;11.73;9.50;;;;;;;-143.84;90.11;43990.53;5092087;28;20481;-78
2023/01/14 05:03:09;;;;;;;17.13;9.37;;;;;;;-143.84;89.87;43960.06;5091802;28;20471;-77
2023/01/14 05:05:36;;;;;;;12.10;8.27;;;;;;;-143.84;89.94;43982.91;5091125;28;20458;-77
2023/01/14 05:08:04;;;;;;;15.63;10.40;;;;;;;-143.84;89.90;43969.59;5092045;28;20432;-78
2023/01/14 05:10:32;;;;;;;16.63;9.57;;;;;;;-143.84;89.75;43979.09;5091671;28;20453;-77
2023/01/14 05:13:02;;;;;;;13.63;10.40;;;;;;;-143.84;90.18;43998.13;5091272;28;20497;-77
2023/01/14 05:15:32;;;;;;;16.00;10.20;;;;;;;-143.84;90.15;43979.09;5091559;28;20439;-78
2023/01/14 05:17:59;;;;;;;14.27;9.60;;;;;;;-143.84;90.18;43979.09;5091374;28;20440;-77
2023/01/14 05:20:28;;;;;;;20.70;10.90;;;;;;;-143.84;90.32;43982.91;5091109;28;20432;-77
2023/01/14 05:22:59;;;;;;;19.70;10.40;;;;;;;-143.84;89.94;43986.72;5092319;28;20460;-78
2023/01/14 05:25:26;;;;;;;19.60;10.10;;;;;;;-143.84;90.29;43975.28;5091863;28;20971;-77
2023/01/14 05:27:53;;;;;;;25.17;10.43;;;;;;;-143.84;90.03;43982.91;5092447;28;20458;-78
2023/01/14 05:30:22;;;;;;;22.40;11.13;;;;;;;-143.84;90.29;44001.94;5095518;28;20440;-78
2023/01/14 05:32:49;;;;;;;21.10;11.53;;;;;;;-143.84;90.68;43981.00;5097724;28;20436;-78
2023/01/14 05:35:17;;;;;;;17.60;10.00;;;;;;;-143.84;90.71;43984.81;5095769;28;20470;-78
2023/01/14 05:37:45;;;;;;;25.17;13.57;;;;;;;-143.84;90.81;43981.00;5092528;28;20460;-76
2023/01/14 05:40:12;;;;;;;14.37;10.00;;;;;;;-143.84;90.78;43994.31;5092242;28;21002;-76
2023/01/14 05:45:54;;;;;;;17.60;9.83;;;;;;;-143.84;90.26;43982.91;5092391;28;20490;-77
2023/01/14 05:48:22;;;;;;;12.10;7.77;;;;;;;-143.84;90.31;43975.28;5091316;28;20515;-79
2023/01/14 05:50:51;;;;;;;13.07;8.10;;;;;;;-143.84;90.18;43984.81;5094267;28;20444;-76
2023/01/14 05:53:19;;;;;;;10.07;8.10;;;;;;;-143.84;90.63;44000.03;5093517;28;20432;-79
2023/01/14 05:55:47;;;;;;;10.50;7.20;;;;;;;-143.84;90.45;43996.22;5095511;28;20435;-79
2023/01/14 05:58:14;;;;;;;13.20;7.97;;;;;;;-143.84;90.23;44003.84;5096764;28;20481;-78
2023/01/14 06:06:23;;;;;;;11.37;8.17;;;;;;;-143.84;90.54;43973.38;5094886;28;20412;-78
2023/01/14 06:08:51;;;;;;;13.67;9.00;;;;;;;-143.84;89.99;43982.91;5096781;28;20767;-77
2023/01/14 06:11:19;;;;;;;13.73;8.10;;;;;;;-143.84;90.46;43984.81;5094210;28;20517;-77
2023/01/14 06:13:47;;;;;;;11.67;7.60;;;;;;;-143.84;90.79;43994.31;5095908;28;20425;-78
2023/01/14 06:16:16;;;;;;;20.57;8.50;;;;;;;-143.84;90.71;43990.53;5095108;28;20435;-78
2023/01/14 06:18:44;;;;;;;11.93;7.87;;;;;;;-143.84;90.64;43986.72;5093866;28;20448;-77
2023/01/14 06:21:14;;;;;;;13.60;7.90;;;;;;;-143.84;90.53;44001.94;5094336;28;20437;-77
2023/01/14 06:23:41;;;;;;;17.20;8.57;;;;;;;-143.84;90.55;43975.28;5094113;28;20476;-77
2023/01/14 06:26:13;;;;;;;9.17;7.27;;;;;;;-143.84;90.29;43998.13;5094273;28;20972;-77
2023/01/14 06:28:42;;;;;;;11.10;7.47;;;;;;;-143.84;90.69;44000.03;5094314;28;20424;-78
2023/01/14 06:31:11;;;;;;;12.60;8.33;;;;;;;-143.84;90.42;43988.63;5094201;28;20436;-77
2023/01/14 06:33:40;;;;;;;11.17;7.20;;;;;;;-143.84;90.43;43994.31;5093822;28;20428;-79
2023/01/14 06:36:08;;;;;;;11.33;7.13;;;;;;;-143.84;90.52;43982.91;5094284;28;20569;-77
2023/01/14 06:38:36;;;;;;;12.43;8.30;;;;;;;-143.84;90.39;43977.19;5093757;28;20447;-77
2023/01/14 06:41:04;;;;;;;11.40;7.93;;;;;;;-143.84;90.24;43979.09;5093902;28;20968;-77
2023/01/14 06:43:32;;;;;;;17.73;8.10;;;;;;;-143.84;90.24;43982.91;5093716;28;21013;-76
2023/01/14 06:45:59;;;;;;;13.07;8.57;;;;;;;-143.84;90.15;43986.72;5092821;28;20439;-75
2023/01/14 06:48:29;;;;;;;15.63;10.10;;;;;;;-143.84;90.24;43988.63;5093481;28;20440;-75
2023/01/14 06:50:58;;;;;;;13.57;8.57;;;;;;;-143.84;90.19;43969.59;5093705;28;20436;-75
2023/01/14 06:53:25;;;;;;;16.33;9.00;;;;;;;-143.84;90.18;43977.19;5093825;28;20789;-77
2023/01/14 06:55:52;;;;;;;12.83;8.37;;;;;;;-143.84;90.01;43986.72;5094312;28;20432;-76
2023/01/14 06:58:19;;;;;;;10.70;7.50;;;;;;;-143.84;90.22;43961.97;5094801;28;20485;-76
2023/01/14 07:00:46;;;;;;;14.17;8.03;;;;;;;-143.84;89.92;43967.69;5092365;28;20494;-77
2023/01/14 07:03:13;;;;;;;10.07;8.37;;;;;;;-143.84;90.18;43981.00;5092661;28;20475;-75
2023/01/14 07:05:40;;;;;;;12.83;8.60;;;;;;;-143.84;90.18;43969.59;5093403;28;20436;-76
2023/01/14 07:08:09;;;;;;;12.20;8.40;;;;;;;-143.84;90.04;43986.72;5093526;28;20622;-76
2023/01/14 07:10:36;;;;;;;14.20;9.43;;;;;;;-143.84;89.95;43969.59;5093524;28;20459;-76
2023/01/14 07:13:03;;;;;;;12.27;8.53;;;;;;;-143.84;90.04;43979.09;5093177;28;20472;-77
2023/01/14 07:15:30;;;;;;;15.43;9.73;;;;;;;-143.84;89.85;43979.09;5093535;28;20432;-76
2023/01/14 07:17:58;;;;;;;16.70;10.00;;;;;;;-143.84;89.92;43990.53;5092856;28;20930;-76
2023/01/14 07:20:25;;;;;;;14.10;9.87;;;;;;;-143.84;89.97;43988.63;5093183;28;21006;-75
2023/01/14 07:22:52;;;;;;;17.23;9.70;;;;;;;-143.84;89.98;43973.38;5093059;28;20536;-76
2023/01/14 07:25:20;;;;;;;12.43;9.60;;;;;;;-143.84;89.98;43986.72;5092984;28;20440;-76
2023/01/14 07:27:47;;;;;;;12.97;8.77;;;;;;;-143.84;89.63;43988.63;5092980;28;20497;-76
2023/01/14 07:30:15;;;;;;;10.97;7.80;;;;;;;-143.84;89.45;43984.81;5091629;28;20496;-76
2023/01/14 07:32:42;;;;;;;11.23;8.07;;;;;;;-143.84;89.38;43988.63;5092719;28;20440;-76
2023/01/14 07:35:09;;;;;;;11.97;7.60;;;;;;;-143.84;89.43;44005.75;5092845;28;20432;-75
2023/01/14 07:37:36;;;;;;;10.90;7.43;;;;;;;-143.84;88.58;43937.22;5092476;28;20489;-75
2023/01/14 07:40:04;;;;;;;11.97;8.17;;;;;;;-143.84;88.22;43965.78;5091743;28;20819;-76
2023/01/14 07:42:33;;;;;;;8.40;6.57;;;;;;;-143.84;88.47;43935.31;5090657;28;20833;-77
2023/01/14 07:45:00;;;;;;;11.23;8.00;;;;;;;-143.84;88.31;43950.53;5091352;28;20441;-77
2023/01/14 07:47:28;;;;;;;8.47;6.80;;;;;;;-143.84;88.30;43956.25;5092530;28;20436;-77
2023/01/14 07:49:55;;;;;;;8.13;6.77;;;;;;;-143.84;88.49;43958.16;5092164;28;20493;-76
2023/01/14 07:52:22;;;;;;;12.30;7.83;;;;;;;-143.84;88.19;43939.13;5092326;28;21169;-76
2023/01/14 07:54:49;;;;;;;8.73;7.57;;;;;;;-143.84;88.36;43958.16;5092703;28;20444;-78
2023/01/14 07:57:16;;;;;;;9.33;7.53;;;;;;;-143.84;88.30;43939.13;5092351;28;21026;-78
2023/01/14 07:59:45;;;;;;;15.90;11.47;;;;;;;-143.84;87.81;43971.47;5092680;28;20421;-78
2023/01/14 08:02:13;;;;;;;19.43;11.07;;;;;;;-143.84;87.92;43944.84;5092307;28;20442;-78
2023/01/14 08:04:40;;;;;;;13.23;8.80;;;;;;;-143.84;87.93;43942.94;5092388;28;20767;-76
2023/01/14 08:07:08;;;;;;;13.90;9.20;;;;;;;-143.84;87.57;43950.53;5091880;28;20448;-77
2023/01/14 08:09:36;;;;;;;15.97;10.90;;;;;;;-143.84;87.38;43941.03;5092407;28;20429;-76
2023/01/14 08:12:03;;;;;;;16.03;10.37;;;;;;;-143.84;87.21;43939.13;5092257;28;20830;-77
2023/01/14 08:14:30;;;;;;;14.13;8.97;;;;;;;-143.84;87.06;43931.50;5091298;28;20858;-77
2023/01/14 08:17:02;;;;;;;22.93;9.63;;;;;;;-143.84;86.94;43912.47;5092262;28;20433;-77
2023/01/14 08:19:30;;;;;;;12.67;8.47;;;;;;;-143.84;86.74;43918.19;5088827;28;20459;-77
2023/01/14 08:21:57;;;;;;;18.77;10.50;;;;;;;-143.84;86.67;43922.00;5092074;28;20494;-76
2023/01/14 08:24:24;;;;;;;16.40;12.13;;;;;;;-143.84;86.42;43922.00;5092154;28;20476;-78
2023/01/14 08:26:51;;;;;;;9.30;7.20;;;;;;;-143.84;86.54;43925.78;5092175;28;20469;-76
2023/01/14 08:29:19;;;;;;;11.77;9.77;;;;;;;-143.84;86.14;43899.16;5091818;28;20432;-76
2023/01/14 08:31:51;;;;;;;13.20;9.87;;;;;;;-143.84;85.88;43920.09;5091727;28;20501;-75
2023/01/14 08:34:20;;;;;;;13.03;8.80;;;;;;;-143.84;85.43;43893.44;5091471;28;20439;-75
2023/01/14 08:36:48;;;;;;;17.80;8.90;;;;;;;-143.84;86.33;43923.91;5092071;28;20800;-76
2023/01/14 08:39:15;;;;;;;11.10;8.50;;;;;;;-143.84;86.25;43887.72;5091518;28;20539;-74
2023/01/14 08:41:42;;;;;;;9.20;7.53;;;;;;;-143.84;85.26;43952.44;5091573;28;20866;-75
2023/01/14 08:44:10;;;;;;;8.60;7.00;;;;;;;-143.84;84.69;43925.78;5092131;28;20475;-76
2023/01/14 08:46:41;;;;;;;11.10;7.30;;;;;;;-143.84;85.12;43920.09;5091609;28;20949;-78
2023/01/14 08:49:08;;;;;;;8.67;7.13;;;;;;;-143.84;85.04;43920.09;5091652;28;20861;-78
2023/01/14 08:51:38;;;;;;;11.47;7.97;;;;;;;-143.84;84.57;43922.00;5091799;28;20420;-77
2023/01/14 08:54:05;;;;;;;10.80;7.20;;;;;;;-143.84;84.34;43939.13;5091789;28;20867;-77
2023/01/14 08:56:32;;;;;;;11.03;7.73;;;;;;;-143.84;84.38;43939.13;5091006;28;21003;-77
2023/01/14 08:58:59;;;;;;;7.90;7.20;;;;;;;-143.84;84.40;43941.03;5091279;28;20432;-78
2023/01/14 09:01:26;;;;;;;11.30;7.53;;;;;;;-143.84;84.20;43969.59;5091494;28;20438;-77
2023/01/14 09:03:57;;;;;;;10.27;8.20;;;;;;;-143.84;84.40;43954.34;5091155;28;20468;-75
2023/01/14 09:06:25;;;;;;;10.83;8.57;;;;;;;-143.84;84.00;43967.69;5091314;28;20447;-75
2023/01/14 09:17:12;;;;;;;13.90;9.37;;;;;;;-143.84;83.71;44045.72;5090564;28;20412;-77
2023/01/14 09:19:43;;;;;;;13.17;9.20;;;;;;;-143.84;84.03;43992.41;5090841;28;21011;-77
2023/01/14 09:22:12;;;;;;;12.00;10.03;;;;;;;-143.84;84.22;43969.59;5091389;28;20435;-77
2023/01/14 09:24:41;;;;;;;12.13;9.20;;;;;;;-143.84;84.20;43977.19;5091547;28;20528;-75
2023/01/14 09:27:08;;;;;;;13.17;10.03;;;;;;;-143.84;84.34;43973.38;5094613;28;20508;-76
2023/01/14 09:29:35;;;;;;;15.13;9.63;;;;;;;-143.84;84.83;43925.78;5094417;28;20447;-76
2023/01/14 09:32:03;;;;;;;14.30;10.10;;;;;;;-143.84;85.14;43929.59;5094961;28;20485;-75
2023/01/14 09:34:30;;;;;;;14.60;9.93;;;;;;;-143.84;85.30;43920.09;5094624;28;20452;-75
2023/01/14 09:36:57;;;;;;;20.50;10.77;;;;;;;-143.84;85.63;43897.25;5094783;28;20447;-75
2023/01/14 09:39:24;;;;;;;14.27;9.93;;;;;;;-143.84;85.69;43882.00;5094598;28;20455;-75
2023/01/14 09:41:56;;;;;;;14.33;9.37;;;;;;;-143.84;86.02;43893.44;5094570;28;20511;-76
2023/01/14 09:44:24;;;;;;;12.87;9.83;;;;;;;-143.84;86.31;43908.66;5094124;28;20480;-75
2023/01/14 09:46:52;;;;;;;14.20;10.17;;;;;;;-143.84;86.05;43901.06;5094833;28;20435;-75
2023/01/14 09:49:23;;;;;;;10.17;7.60;;;;;;;-143.84;86.15;43899.16;5094657;28;20831;-76
2023/01/14 09:52:16;;;;;;;10.93;7.67;;;;;;;-143.84;86.06;43914.38;5094587;28;20432;-76
2023/01/14 09:54:55;;;;;;;10.27;8.03;;;;;;;-143.84;86.45;43904.84;5094995;28;20436;-76
2023/01/14 09:57:41;;;;;;;9.00;7.23;;;;;;;-143.84;86.03;43895.34;5093875;28;20448;-76
2023/01/14 10:00:31;;;;;;;13.30;8.70;;;;;;;-143.84;85.31;43906.75;5093954;28;20439;-76
2023/01/14 10:03:20;;;;;;;12.47;8.10;;;;;;;-143.84;85.31;43918.19;5093333;28;20472;-76
2023/01/14 10:05:54;;;;;;;10.20;7.93;;;;;;;-143.84;85.77;43922.00;5092753;28;20465;-76
2023/01/14 10:08:24;;;;;;;9.30;7.50;;;;;;;-143.84;85.28;43897.25;5093781;28;20500;-77
2023/01/14 10:10:51;;;;;;;13.03;7.83;;;;;;;-143.84;85.31;43897.25;5093703;28;20460;-76
2023/01/14 10:13:24;;;;;;;12.80;8.40;;;;;;;-143.84;85.19;43923.91;5093949;28;20452;-77
2023/01/14 10:15:55;;;;;;;8.20;6.67;;;;;;;-143.84;85.35;43887.72;5094006;28;20448;-75
2023/01/14 10:18:27;;;;;;;8.60;7.07;;;;;;;-143.84;84.86;43897.25;5093135;28;20439;-77
2023/01/14 10:20:58;;;;;;;8.40;7.30;;;;;;;-143.84;84.90;43897.25;5092754;28;20519;-75
2023/01/14 10:23:29;;;;;;;8.20;6.73;;;;;;;-143.84;84.05;43960.06;5092593;28;21001;-76
2023/01/14 10:25:58;;;;;;;14.93;8.10;;;;;;;-143.84;84.33;43973.38;5093928;28;20529;-78
2023/01/14 10:28:29;;;;;;;10.93;8.37;;;;;;;-143.84;84.77;43929.59;5093287;28;20444;-77
2023/01/14 10:31:00;;;;;;;10.23;8.13;;;;;;;-143.84;85.02;43885.81;5093692;28;20761;-74
2023/01/14 10:33:27;;;;;;;11.93;8.50;;;;;;;-143.84;85.65;43914.38;5094212;28;20501;-74
2023/01/14 10:35:58;;;;;;;13.17;9.87;;;;;;;-143.84;85.94;43872.50;5093108;28;20448;-74
2023/01/14 10:38:27;;;;;;;13.20;9.20;;;;;;;-143.84;86.23;43868.69;5092981;28;21190;-74
2023/01/14 10:40:59;;;;;;;11.67;9.60;;;;;;;-143.84;86.46;43895.34;5093397;28;20950;-74
2023/01/14 10:43:33;;;;;;;15.00;10.80;;;;;;;-143.84;85.58;43876.31;5093389;28;20559;-75
2023/01/14 10:46:01;;;;;;;11.73;9.67;;;;;;;-143.84;85.59;43882.00;5092503;28;20447;-74
2023/01/14 10:48:30;;;;;;;16.50;10.27;;;;;;;-143.84;85.63;43906.75;5092065;28;20886;-75
2023/01/14 10:51:36;;;;;;;15.57;10.90;;;;;;;-143.84;86.19;43910.56;5091773;28;20443;-75
2023/01/14 10:54:14;;;;;;;10.60;8.80;;;;;;;-143.84;86.11;43901.06;5092164;28;21527;-75
2023/01/14 10:56:45;;;;;;;13.37;9.53;;;;;;;-143.84;86.38;43904.84;5092443;28;20449;-74
2023/01/14 10:59:30;;;;;;;10.30;8.70;;;;;;;-143.84;86.26;43904.84;5091300;28;20530;-74
2023/01/14 11:01:57;;;;;;;12.67;8.83;;;;;;;-143.84;86.42;43866.78;5090415;28;20449;-74
2023/01/14 11:04:29;;;;;;;11.23;8.47;;;;;;;-143.84;86.21;43908.66;5092583;28;20479;-74
2023/01/14 11:06:57;;;;;;;13.00;8.33;;;;;;;-143.84;86.31;43908.66;5090716;28;20444;-74
2023/01/14 11:09:30;;;;;;;11.47;9.27;;;;;;;-143.84;86.42;43918.19;5092581;28;20500;-74
2023/01/14 11:11:58;;;;;;;9.67;7.57;;;;;;;-143.84;86.48;43923.91;5089554;28;20492;-74
2023/01/14 11:14:32;;;;;;;9.40;8.17;;;;;;;-143.84;85.84;43901.06;5091504;28;20445;-74
2023/01/14 11:16:59;;;;;;;8.40;6.77;;;;;;;-143.84;85.81;43891.53;5088313;28;20460;-73
2023/01/14 11:19:27;;;;;;;11.73;8.40;;;;;;;-143.84;86.05;43901.06;5087632;28;20475;-74
2023/01/14 11:21:57;;;;;;;10.50;8.10;;;;;;;-143.84;85.72;43912.47;5091769;28;20448;-73
2023/01/14 11:24:30;;;;;;;13.20;8.40;;;;;;;-143.84;85.76;43876.31;5092088;28;20490;-73
2023/01/14 11:27:02;;;;;;;11.27;8.67;;;;;;;-143.84;85.71;43891.53;5092089;28;20494;-74
2023/01/14 11:29:34;;;;;;;9.70;8.60;;;;;;;-143.84;85.77;43901.06;5089680;28;20448;-73
2023/01/14 11:32:08;;;;;;;10.77;9.10;;;;;;;-143.84;85.74;43895.34;5092239;28;20940;-73
2023/01/14 11:34:39;;;;;;;13.47;9.23;;;;;;;-143.84;86.00;43897.25;5091794;28;20450;-74
2023/01/14 11:37:15;;;;;;;12.87;9.40;;;;;;;-143.84;86.03;43901.06;5092211;28;20471;-73
2023/01/14 11:39:49;;;;;;;13.27;9.67;;;;;;;-143.84;85.90;43893.44;5091672;28;20510;-74
2023/01/14 11:42:38;;;;;;;17.77;12.30;;;;;;;-143.84;86.29;43897.25;5091753;28;20447;-74
2023/01/14 11:45:21;;;;;;;13.27;9.40;;;;;;;-143.84;86.32;43904.84;5086906;28;21044;-75
2023/01/14 11:47:49;;;;;;;13.07;11.13;;;;;;;-143.84;86.23;43895.34;5091602;28;20448;-75